Time;durP1;ratioP1;P1;durP2;ratioP2;P2;SDS_P1;SDS_P2;PMS_P1;PMS_P2;Temp;Humidity;BMP_temperature;BMP_pressure;BME280_temperature;BME280_humidity;BME280_pressure;Samples;Min_cycle;Max_cycle;Signal;HPM_P1;HPM_P2
2022/11/05 00:17:09;;;;;;;3.53;2.73;;;4.10;99.90;;;;;;5091640;28;20425;-47
2022/11/05 00:19:36;;;;;;;4.33;3.93;;;4.10;99.90;;;;;;5091449;28;20444;-47
2022/11/05 00:27:34;;;;;;;7.37;3.40;;;3.90;99.90;;;;;;5091679;28;20417;-47
2022/11/05 00:30:02;;;;;;;4.67;3.10;;;3.60;99.90;;;;;;5092401;28;20954;-47
2022/11/05 00:32:29;;;;;;;3.40;2.27;;;3.90;99.90;;;;;;5091365;28;20512;-47
2022/11/05 00:34:56;;;;;;;3.90;3.17;;;4.10;99.90;;;;;;5090757;28;20973;-47
2022/11/05 00:37:23;;;;;;;3.63;3.00;;;4.20;99.90;;;;;;5091171;28;20516;-50
2022/11/05 00:39:50;;;;;;;5.67;2.90;;;4.30;99.90;;;;;;5091238;28;20527;-47
2022/11/05 00:45:02;;;;;;;3.50;3.20;;;4.30;99.90;;;;;;5090725;28;20827;-47
2022/11/05 00:50:15;;;;;;;8.00;2.73;;;4.10;99.90;;;;;;5093536;28;20804;-46
2022/11/05 00:55:23;;;;;;;3.53;2.70;;;3.00;99.90;;;;;;5091933;28;20942;-46
2022/11/05 00:57:50;;;;;;;4.10;2.80;;;3.40;99.90;;;;;;5095296;28;20443;-46
2022/11/05 01:00:18;;;;;;;4.07;2.67;;;3.70;99.90;;;;;;5094959;28;20442;-46
2022/11/05 01:02:45;;;;;;;10.53;3.70;;;3.70;99.90;;;;;;5094807;28;20975;-46
2022/11/05 01:05:12;;;;;;;2.70;2.17;;;3.40;99.90;;;;;;5094464;28;21087;-46
2022/11/05 01:07:39;;;;;;;6.23;2.40;;;2.90;99.90;;;;;;5094697;28;20453;-46
2022/11/05 01:10:07;;;;;;;3.23;2.43;;;3.20;99.90;;;;;;5094796;28;20536;-46
2022/11/05 01:12:33;;;;;;;2.43;2.23;;;3.60;99.90;;;;;;5094773;28;21009;-46
2022/11/05 01:15:01;;;;;;;3.63;2.93;;;3.90;99.90;;;;;;5094551;28;20475;-45
2022/11/05 01:17:29;;;;;;;2.73;2.33;;;4.10;99.90;;;;;;5094650;28;20446;-47
2022/11/05 01:19:56;;;;;;;4.13;2.87;;;4.10;99.90;;;;;;5094712;28;20537;-48
2022/11/05 01:22:23;;;;;;;3.03;2.73;;;3.70;99.90;;;;;;5094427;28;20526;-45
2022/11/05 01:24:49;;;;;;;4.27;2.53;;;3.80;99.90;;;;;;5094561;28;20529;-46
2022/11/05 01:27:16;;;;;;;2.50;1.80;;;4.00;99.90;;;;;;5094785;28;20481;-47
2022/11/05 01:29:43;;;;;;;2.70;2.30;;;4.10;99.90;;;;;;5094474;28;20544;-46
2022/11/05 01:32:10;;;;;;;2.50;1.90;;;4.10;99.90;;;;;;5094562;28;20970;-46
2022/11/05 01:34:38;;;;;;;2.00;1.80;;;4.10;99.90;;;;;;5093886;28;20462;-47
2022/11/05 01:37:05;;;;;;;1.47;1.23;;;3.90;99.90;;;;;;5093613;28;21014;-46
2022/11/05 01:39:32;;;;;;;1.77;1.40;;;3.40;99.90;;;;;;5093138;28;20576;-46
2022/11/05 01:41:59;;;;;;;2.60;2.40;;;3.30;99.90;;;;;;5094154;28;20532;-46
2022/11/05 01:44:53;;;;;;;4.77;2.70;;;3.40;99.90;;;;;;5093927;28;20896;-46
2022/11/05 01:47:31;;;;;;;3.80;2.90;;;3.50;99.90;;;;;;5094107;28;20559;-47
2022/11/05 01:50:02;;;;;;;2.50;2.00;;;3.60;99.90;;;;;;5094422;28;20536;-46
2022/11/05 01:52:31;;;;;;;3.10;2.50;;;3.80;99.90;;;;;;5093975;28;20531;-46
2022/11/05 01:54:59;;;;;;;6.60;3.83;;;3.70;99.90;;;;;;5093488;28;20819;-46
2022/11/05 01:57:28;;;;;;;12.07;4.67;;;3.80;99.90;;;;;;5093710;28;20475;-46
2022/11/05 01:59:58;;;;;;;13.20;5.27;;;3.60;99.90;;;;;;5093782;28;20543;-46
2022/11/05 02:02:25;;;;;;;6.83;3.70;;;2.60;99.90;;;;;;5093490;28;20526;-46
2022/11/05 02:04:56;;;;;;;4.93;3.30;;;2.10;99.90;;;;;;5093703;28;20552;-45
2022/11/05 02:07:26;;;;;;;18.97;5.23;;;2.70;99.90;;;;;;5093866;28;20572;-48
2022/11/05 02:09:59;;;;;;;3.30;2.40;;;2.40;99.90;;;;;;5093881;28;20468;-46
2022/11/05 02:12:27;;;;;;;2.40;2.20;;;2.20;99.90;;;;;;5093729;28;20532;-45
2022/11/05 02:14:54;;;;;;;3.40;2.57;;;2.70;99.90;;;;;;5093193;28;20999;-46
2022/11/05 02:17:31;;;;;;;3.70;2.60;;;3.00;99.90;;;;;;5093509;28;20443;-47
2022/11/05 02:20:22;;;;;;;4.03;3.50;;;3.30;99.90;;;;;;5093715;28;20462;-46
2022/11/05 02:23:29;;;;;;;5.13;3.00;;;3.40;99.90;;;;;;5091975;28;20957;-46
2022/11/05 02:26:29;;;;;;;5.00;3.10;;;3.10;99.90;;;;;;5093512;28;20526;-46
2022/11/05 02:29:27;;;;;;;3.03;2.73;;;3.10;99.90;;;;;;5093388;28;20528;-46
2022/11/05 02:32:03;;;;;;;2.63;2.43;;;3.40;99.90;;;;;;5093283;28;20533;-48
2022/11/05 02:34:38;;;;;;;4.73;2.70;;;3.40;99.90;;;;;;5092766;28;20491;-46
2022/11/05 02:37:13;;;;;;;2.80;2.00;;;3.40;99.90;;;;;;5093276;28;20976;-46
2022/11/05 02:39:47;;;;;;;2.07;1.83;;;2.70;99.90;;;;;;5092900;28;20468;-45
2022/11/05 02:42:25;;;;;;;2.60;2.03;;;2.90;99.90;;;;;;5093006;28;20473;-46
2022/11/05 02:45:01;;;;;;;4.30;3.10;;;3.30;99.90;;;;;;5093279;28;20554;-46
2022/11/05 02:47:38;;;;;;;3.40;2.87;;;3.40;99.90;;;;;;5093204;28;20471;-47
2022/11/05 02:50:18;;;;;;;4.10;3.17;;;2.60;99.90;;;;;;5093241;28;20528;-46
2022/11/05 02:52:58;;;;;;;2.77;2.50;;;3.00;99.90;;;;;;5092972;28;20444;-48
2022/11/05 02:55:29;;;;;;;7.23;3.83;;;3.10;99.90;;;;;;5092785;28;20490;-46
2022/11/05 02:57:58;;;;;;;7.37;5.77;;;3.20;99.90;;;;;;5092901;28;20465;-47
2022/11/05 03:00:50;;;;;;;5.80;4.10;;;3.20;99.90;;;;;;5092616;28;20444;-46
2022/11/05 03:03:26;;;;;;;4.33;3.57;;;2.80;99.90;;;;;;5082545;28;20452;-46
2022/11/05 03:06:25;;;;;;;6.43;4.87;;;2.40;99.90;;;;;;5092485;28;21026;-43
2022/11/05 03:09:09;;;;;;;4.33;3.83;;;2.20;99.90;;;;;;5075577;28;20440;-46
2022/11/05 03:11:45;;;;;;;3.43;3.10;;;2.20;99.90;;;;;;5092558;28;20523;-49
2022/11/05 03:14:22;;;;;;;3.00;2.50;;;2.70;99.90;;;;;;5091815;28;20467;-47
2022/11/05 03:16:56;;;;;;;2.87;2.50;;;3.20;99.90;;;;;;5092664;28;20523;-48
2022/11/05 03:19:36;;;;;;;3.20;1.57;;;3.40;99.90;;;;;;5092558;28;20972;-50
2022/11/05 03:22:08;;;;;;;5.23;3.13;;;3.60;99.90;;;;;;5092236;28;20945;-48
2022/11/05 03:24:39;;;;;;;3.43;2.80;;;3.70;99.90;;;;;;5091776;28;20539;-50
2022/11/05 03:27:10;;;;;;;4.17;3.07;;;3.60;99.90;;;;;;5092308;28;20630;-48
2022/11/05 03:29:42;;;;;;;3.57;2.70;;;3.60;99.90;;;;;;5092527;28;20447;-47
2022/11/05 03:32:11;;;;;;;3.73;2.60;;;3.60;99.90;;;;;;5092292;28;20504;-46
2022/11/05 03:34:46;;;;;;;3.50;2.80;;;3.80;99.90;;;;;;5091832;28;20899;-46
2022/11/05 03:37:13;;;;;;;3.77;3.10;;;4.00;99.90;;;;;;5091929;28;20884;-46
2022/11/05 03:39:44;;;;;;;3.27;2.80;;;3.90;99.90;;;;;;5091794;28;20441;-46
2022/11/05 03:42:15;;;;;;;3.40;3.10;;;3.70;99.90;;;;;;5091938;28;20437;-48
2022/11/05 03:44:48;;;;;;;2.97;2.60;;;3.90;99.90;;;;;;5091596;28;20497;-46
2022/11/05 03:47:18;;;;;;;3.00;2.40;;;4.10;99.90;;;;;;5091664;28;20570;-47
2022/11/05 03:49:53;;;;;;;2.30;1.57;;;4.20;99.90;;;;;;5091858;28;20530;-46
2022/11/05 03:52:24;;;;;;;2.90;2.13;;;4.30;99.90;;;;;;5091927;28;20436;-46
2022/11/05 03:54:51;;;;;;;2.50;2.30;;;4.10;99.90;;;;;;5091441;28;20942;-45
2022/11/05 03:57:23;;;;;;;3.10;2.80;;;3.80;99.90;;;;;;5091438;28;20890;-45
2022/11/05 03:59:51;;;;;;;2.50;2.30;;;3.30;99.90;;;;;;5091838;28;20543;-47
2022/11/05 04:02:20;;;;;;;3.17;2.87;;;3.00;99.90;;;;;;5091463;28;20522;-46
2022/11/05 04:04:48;;;;;;;2.53;2.33;;;2.80;99.90;;;;;;5091446;28;20503;-46
2022/11/05 04:15:29;;;;;;;3.67;2.20;;;2.50;99.90;;;;;;5091650;28;20479;-45
2022/11/05 04:17:57;;;;;;;2.53;2.30;;;2.50;99.90;;;;;;5091397;28;20459;-46
2022/11/05 04:25:55;;;;;;;3.47;3.10;;;3.60;99.90;;;;;;5090766;28;20439;-46
2022/11/05 04:30:17;;;;;;;4.60;3.57;;;3.80;99.90;;;;;;5091183;28;20562;-46
2022/11/05 04:31:08;;;;;;;3.53;2.77;;;3.10;99.90;;;;;;5091180;28;20447;-47
2022/11/05 04:33:35;;;;;;;5.03;3.53;;;2.90;99.90;;;;;;5091152;28;20436;-46
2022/11/05 04:36:04;;;;;;;3.10;2.90;;;2.50;99.90;;;;;;5091392;28;20301;-46
2022/11/05 04:38:31;;;;;;;4.80;3.23;;;2.40;99.90;;;;;;5091395;28;20519;-47
2022/11/05 04:41:12;;;;;;;3.20;2.50;;;2.50;99.90;;;;;;5090856;28;20878;-45
2022/11/05 04:43:39;;;;;;;3.70;3.00;;;2.50;99.90;;;;;;5090942;28;20944;-46
2022/11/05 04:46:06;;;;;;;5.67;2.97;;;2.50;99.90;;;;;;5091030;28;21036;-46
2022/11/05 04:48:33;;;;;;;3.10;2.77;;;2.60;99.90;;;;;;5091253;28;20472;-46
2022/11/05 04:51:00;;;;;;;3.30;1.80;;;3.10;99.90;;;;;;5091130;28;20527;-46
2022/11/05 04:53:28;;;;;;;1.47;1.10;;;3.20;99.90;;;;;;5090948;28;20497;-46
2022/11/05 04:55:55;;;;;;;1.83;1.20;;;3.40;99.90;;;;;;5090908;28;20556;-46
2022/11/05 04:58:22;;;;;;;2.37;1.37;;;3.60;99.90;;;;;;5091008;28;20529;-46
2022/11/05 05:00:49;;;;;;;1.53;1.43;;;3.90;99.90;;;;;;5091362;28;20537;-46
2022/11/05 05:03:16;;;;;;;2.87;2.57;;;4.00;99.90;;;;;;5090840;28;20522;-46
2022/11/05 05:05:43;;;;;;;5.00;2.80;;;3.80;99.90;;;;;;5090989;28;21057;-46
2022/11/05 05:08:10;;;;;;;3.70;2.70;;;4.00;99.90;;;;;;5090951;28;21039;-48
2022/11/05 05:10:38;;;;;;;2.83;2.33;;;4.10;99.90;;;;;;5091301;28;20445;-47
2022/11/05 05:13:05;;;;;;;2.77;2.43;;;4.20;99.90;;;;;;5090930;28;20480;-46
2022/11/05 05:15:32;;;;;;;2.67;2.43;;;4.20;99.90;;;;;;5090694;28;20557;-46
2022/11/05 05:17:59;;;;;;;3.70;2.93;;;4.30;99.90;;;;;;5090963;28;20519;-48
2022/11/05 05:23:10;;;;;;;2.80;2.60;;;4.30;99.90;;;;;;5091102;28;20492;-47
2022/11/05 05:25:38;;;;;;;2.57;2.33;;;4.30;99.90;;;;;;5090655;28;20540;-48
2022/11/05 05:28:05;;;;;;;4.63;3.80;;;4.30;99.90;;;;;;5090843;28;20565;-47
2022/11/05 05:30:32;;;;;;;2.80;2.60;;;4.10;99.90;;;;;;5090745;28;20449;-47
2022/11/05 05:33:02;;;;;;;4.33;3.70;;;3.40;99.90;;;;;;5090824;28;20444;-47
2022/11/05 05:35:29;;;;;;;3.47;3.17;;;3.00;99.90;;;;;;5091156;28;20465;-47
2022/11/05 05:37:56;;;;;;;3.00;2.70;;;3.00;99.90;;;;;;5093577;28;20555;-50
2022/11/05 05:40:22;;;;;;;3.17;2.77;;;3.50;99.90;;;;;;5093760;28;21000;-47
2022/11/05 05:42:54;;;;;;;3.40;3.03;;;3.80;99.90;;;;;;5094054;28;20533;-47
2022/11/05 05:45:21;;;;;;;2.73;2.23;;;3.90;99.90;;;;;;5094234;28;20469;-47
2022/11/05 05:47:48;;;;;;;2.60;2.40;;;4.10;99.90;;;;;;5094279;28;20563;-49
2022/11/05 05:50:15;;;;;;;2.80;2.40;;;4.20;99.90;;;;;;5094224;28;20811;-46
2022/11/05 05:52:42;;;;;;;2.97;2.63;;;4.30;99.90;;;;;;5093865;28;20938;-46
2022/11/05 05:55:11;;;;;;;2.73;1.90;;;4.10;99.90;;;;;;5093571;28;20546;-49
2022/11/05 05:57:38;;;;;;;2.43;2.23;;;3.90;99.90;;;;;;5094226;28;20490;-46
2022/11/05 06:00:07;;;;;;;3.83;2.27;;;4.10;99.90;;;;;;5093890;28;20445;-46
2022/11/05 06:02:34;;;;;;;2.00;1.80;;;4.30;99.90;;;;;;5094092;28;20473;-48
2022/11/05 06:05:01;;;;;;;3.50;2.47;;;4.40;99.90;;;;;;5093494;28;20490;-49
2022/11/05 06:07:28;;;;;;;2.43;2.23;;;4.50;99.90;;;;;;5093647;28;20477;-46
2022/11/05 06:09:55;;;;;;;5.20;3.20;;;4.40;99.90;;;;;;5093516;28;21021;-46
2022/11/05 06:12:22;;;;;;;3.80;2.83;;;4.40;99.90;;;;;;5093559;28;20990;-48
2022/11/05 06:14:49;;;;;;;6.33;4.03;;;4.50;99.90;;;;;;5094313;28;21002;-46
2022/11/05 06:17:17;;;;;;;3.40;3.10;;;4.50;99.90;;;;;;5093647;28;20513;-47
2022/11/05 06:19:44;;;;;;;5.23;3.23;;;4.50;99.90;;;;;;5093882;28;20527;-46
2022/11/05 06:22:11;;;;;;;5.37;4.17;;;4.50;99.90;;;;;;5093506;28;20443;-47
2022/11/05 06:24:37;;;;;;;5.00;3.80;;;3.90;99.90;;;;;;5093230;28;20548;-46
2022/11/05 06:27:05;;;;;;;3.63;3.33;;;3.80;99.90;;;;;;5093397;28;20559;-46
2022/11/05 06:29:32;;;;;;;4.03;3.33;;;4.20;99.90;;;;;;5093244;28;20849;-46
2022/11/05 06:31:59;;;;;;;3.57;3.27;;;4.40;99.90;;;;;;5093228;28;21017;-46
2022/11/05 06:34:27;;;;;;;4.57;3.60;;;4.40;99.90;;;;;;5092693;28;21039;-48
2022/11/05 06:36:54;;;;;;;2.93;2.60;;;4.20;99.90;;;;;;5093597;28;21005;-47
2022/11/05 06:39:20;;;;;;;2.70;2.30;;;4.10;99.90;;;;;;5092928;28;20440;-47
2022/11/05 06:41:47;;;;;;;3.00;2.70;;;4.30;99.90;;;;;;5093261;28;20441;-46
2022/11/05 06:44:14;;;;;;;2.23;2.00;;;4.00;99.90;;;;;;5092782;28;20559;-47
2022/11/05 06:46:41;;;;;;;2.70;2.20;;;3.90;99.90;;;;;;5093006;28;20451;-46
2022/11/05 06:49:08;;;;;;;3.03;2.00;;;3.90;99.90;;;;;;5092444;28;20515;-48
2022/11/05 06:51:36;;;;;;;3.27;2.30;;;3.90;99.90;;;;;;5092878;28;20541;-47
2022/11/05 06:54:03;;;;;;;1.87;1.77;;;3.70;99.90;;;;;;5092649;28;21024;-47
2022/11/05 06:56:30;;;;;;;2.50;1.67;;;3.60;99.90;;;;;;5093061;28;20474;-46
2022/11/05 06:58:57;;;;;;;2.83;1.97;;;3.60;99.90;;;;;;5093017;28;20467;-47
2022/11/05 07:01:23;;;;;;;4.20;2.37;;;3.90;99.90;;;;;;5092812;28;20520;-46
2022/11/05 07:03:50;;;;;;;4.40;1.97;;;4.20;99.90;;;;;;5092506;28;20447;-46
2022/11/05 07:06:17;;;;;;;5.73;3.17;;;4.40;99.90;;;;;;5092855;28;20463;-47
2022/11/05 07:08:45;;;;;;;5.27;4.83;;;4.50;99.90;;;;;;5092658;28;20575;-47
2022/11/05 07:11:12;;;;;;;6.13;5.60;;;4.70;99.90;;;;;;5092558;28;21036;-47
2022/11/05 07:13:39;;;;;;;6.37;5.10;;;4.70;99.90;;;;;;5092221;28;20950;-47
2022/11/05 07:16:07;;;;;;;4.70;4.30;;;4.70;99.90;;;;;;5092208;28;20547;-47
2022/11/05 07:18:34;;;;;;;5.57;5.07;;;4.70;99.90;;;;;;5092498;28;20471;-48
2022/11/05 07:21:01;;;;;;;6.37;5.77;;;4.70;99.90;;;;;;5092557;28;20531;-47
2022/11/05 07:23:28;;;;;;;6.30;5.70;;;4.10;99.90;;;;;;5092101;28;20443;-47
2022/11/05 07:25:56;;;;;;;6.10;5.60;;;3.50;99.90;;;;;;5092076;28;20539;-47
2022/11/05 07:28:23;;;;;;;5.80;4.73;;;3.40;99.90;;;;;;5092303;28;20472;-48
2022/11/05 07:30:50;;;;;;;7.00;5.33;;;3.40;99.90;;;;;;5092027;28;20531;-46
2022/11/05 07:33:17;;;;;;;7.30;6.60;;;3.40;99.90;;;;;;5092116;28;20469;-50
2022/11/05 07:35:43;;;;;;;7.47;6.77;;;3.30;99.90;;;;;;5092177;28;20540;-46
2022/11/05 07:38:11;;;;;;;7.40;6.73;;;3.50;99.90;;;;;;5092119;28;20443;-46
2022/11/05 07:40:37;;;;;;;7.73;7.03;;;3.70;99.90;;;;;;5091724;28;20531;-49
2022/11/05 07:43:06;;;;;;;7.23;6.53;;;3.70;99.90;;;;;;5091636;28;21015;-47
2022/11/05 07:45:33;;;;;;;9.63;8.63;;;4.10;99.90;;;;;;5091744;28;21045;-46
2022/11/05 07:48:02;;;;;;;11.07;8.20;;;4.30;99.90;;;;;;5091552;28;20989;-47
2022/11/05 07:50:31;;;;;;;2.47;2.27;;;4.40;99.90;;;;;;5091756;28;20952;-44
2022/11/05 07:53:01;;;;;;;3.20;2.67;;;4.10;99.90;;;;;;5091529;28;20439;-46
2022/11/05 07:55:28;;;;;;;6.10;5.60;;;4.40;99.90;;;;;;5091530;28;21004;-47
2022/11/05 07:57:55;;;;;;;7.30;6.60;;;4.50;99.90;;;;;;5091678;28;20524;-46
2022/11/05 08:00:25;;;;;;;6.93;6.23;;;4.60;99.90;;;;;;5091160;28;20442;-47
2022/11/05 08:03:00;;;;;;;6.20;5.70;;;4.60;99.90;;;;;;5091497;28;20535;-44
2022/11/05 08:05:27;;;;;;;6.80;6.10;;;4.70;99.90;;;;;;5091285;28;20547;-48
2022/11/05 08:07:54;;;;;;;6.93;6.23;;;4.50;99.90;;;;;;5091272;28;20485;-46
2022/11/05 08:10:22;;;;;;;5.90;5.30;;;4.10;99.90;;;;;;5091265;28;20986;-47
2022/11/05 08:12:49;;;;;;;8.00;7.20;;;4.00;99.90;;;;;;5091528;28;20447;-47
2022/11/05 08:15:16;;;;;;;6.97;6.27;;;3.90;99.90;;;;;;5091021;28;20476;-47
2022/11/05 08:17:44;;;;;;;7.80;7.03;;;3.80;99.90;;;;;;5091311;28;20448;-46
2022/11/05 08:20:12;;;;;;;8.60;6.30;;;3.90;99.90;;;;;;5091277;28;20448;-46
2022/11/05 08:22:42;;;;;;;4.43;4.00;;;3.90;99.90;;;;;;5091346;28;20530;-47
2022/11/05 08:25:09;;;;;;;4.70;4.00;;;3.90;99.90;;;;;;5091185;28;20992;-47
2022/11/05 08:27:36;;;;;;;8.83;5.07;;;4.10;99.90;;;;;;5091256;28;21072;-47
2022/11/05 08:30:04;;;;;;;4.83;4.33;;;4.40;99.90;;;;;;5091149;28;20492;-46
2022/11/05 08:32:31;;;;;;;3.73;3.43;;;4.70;99.90;;;;;;5091201;28;20451;-46
2022/11/05 08:34:59;;;;;;;3.97;3.53;;;4.80;99.90;;;;;;5090934;28;20832;-47
2022/11/05 08:37:26;;;;;;;4.93;3.30;;;5.00;99.90;;;;;;5091531;28;20533;-47
2022/11/05 08:39:53;;;;;;;6.00;2.93;;;5.10;99.90;;;;;;5091115;28;20482;-47
2022/11/05 08:42:20;;;;;;;3.27;2.97;;;5.10;99.90;;;;;;5091226;28;20937;-47
2022/11/05 08:44:47;;;;;;;4.00;3.60;;;5.10;99.90;;;;;;5090915;28;20526;-47
2022/11/05 08:47:14;;;;;;;5.43;4.90;;;5.10;99.90;;;;;;5090983;28;20524;-47
2022/11/05 08:49:40;;;;;;;6.97;6.07;;;5.00;99.90;;;;;;5091351;28;20861;-47
2022/11/05 08:52:09;;;;;;;11.10;8.70;;;5.10;99.90;;;;;;5091258;28;20533;-47
2022/11/05 08:54:36;;;;;;;9.53;7.40;;;5.10;99.90;;;;;;5090715;28;21039;-47
2022/11/05 08:57:03;;;;;;;9.20;8.20;;;5.20;99.90;;;;;;5090669;28;20448;-47
2022/11/05 08:59:30;;;;;;;10.53;9.43;;;5.40;99.90;;;;;;5090775;28;20489;-47
2022/11/05 09:01:57;;;;;;;16.77;11.87;;;5.50;99.90;;;;;;5091327;28;20451;-47
2022/11/05 09:04:24;;;;;;;16.97;12.30;;;5.50;99.90;;;;;;5090882;28;20631;-47
2022/11/05 09:06:50;;;;;;;15.60;13.13;;;5.50;99.90;;;;;;5091169;28;20485;-49
2022/11/05 09:09:19;;;;;;;11.80;10.23;;;5.40;99.90;;;;;;5090833;28;20585;-47
2022/11/05 09:11:46;;;;;;;8.03;7.10;;;5.50;99.90;;;;;;5093356;28;20565;-47
2022/11/05 09:14:13;;;;;;;5.50;5.00;;;5.50;99.90;;;;;;5094207;28;20486;-46
2022/11/05 09:16:42;;;;;;;6.37;5.60;;;5.50;99.90;;;;;;5094850;28;20539;-48
2022/11/05 09:19:09;;;;;;;6.17;5.07;;;5.60;99.90;;;;;;5094879;28;20446;-47
2022/11/05 09:21:36;;;;;;;7.77;5.40;;;5.60;99.90;;;;;;5094691;28;20503;-48
2022/11/05 09:24:03;;;;;;;4.80;4.13;;;5.40;99.90;;;;;;5094547;28;20466;-46
2022/11/05 09:26:31;;;;;;;3.50;3.20;;;5.70;99.90;;;;;;5094220;28;20451;-46
2022/11/05 09:28:58;;;;;;;2.80;2.60;;;5.80;99.90;;;;;;5093891;28;20568;-47
2022/11/05 09:31:25;;;;;;;2.87;2.33;;;5.80;99.90;;;;;;5094678;28;20471;-47
2022/11/05 09:33:52;;;;;;;4.17;3.03;;;5.90;99.90;;;;;;5093487;28;21024;-48
2022/11/05 09:36:19;;;;;;;3.93;3.40;;;5.90;99.90;;;;;;5095392;28;20882;-49
2022/11/05 09:38:46;;;;;;;5.77;4.67;;;6.00;99.90;;;;;;5093069;28;20933;-46
2022/11/05 09:41:19;;;;;;;5.30;4.20;;;6.00;99.90;;;;;;5094333;28;20453;-46
2022/11/05 09:43:50;;;;;;;5.80;5.30;;;6.00;99.90;;;;;;5094087;28;20439;-47
2022/11/05 09:46:20;;;;;;;6.30;4.73;;;6.00;99.90;;;;;;5094455;28;20443;-46
2022/11/05 09:48:49;;;;;;;6.37;4.97;;;5.70;99.90;;;;;;5088945;28;20559;-46
2022/11/05 09:51:17;;;;;;;5.53;4.70;;;5.70;99.90;;;;;;5094641;28;20535;-48
2022/11/05 09:53:45;;;;;;;6.30;4.83;;;5.50;99.90;;;;;;5082836;28;20968;-49
2022/11/05 09:56:21;;;;;;;5.30;4.80;;;5.40;99.90;;;;;;5073148;28;20496;-48
2022/11/05 09:58:52;;;;;;;6.33;5.73;;;5.40;99.90;;;;;;5093241;28;20486;-49
2022/11/05 10:01:24;;;;;;;7.90;5.87;;;5.40;99.90;;;;;;5093872;28;20511;-48
2022/11/05 10:03:54;;;;;;;7.70;5.50;;;5.60;99.90;;;;;;5093874;28;20519;-49
2022/11/05 10:06:24;;;;;;;6.87;5.03;;;5.80;99.90;;;;;;5093912;28;20495;-49
2022/11/05 10:08:56;;;;;;;6.40;5.80;;;5.90;99.90;;;;;;5093984;28;20612;-49
2022/11/05 10:11:31;;;;;;;11.20;7.00;;;6.00;99.90;;;;;;5094015;28;20451;-50
2022/11/05 10:14:03;;;;;;;8.50;5.10;;;6.10;99.90;;;;;;5093442;28;20522;-48
2022/11/05 10:16:34;;;;;;;13.50;5.90;;;6.20;99.90;;;;;;5093523;28;20497;-49
2022/11/05 10:19:08;;;;;;;7.63;4.70;;;6.00;99.90;;;;;;5093772;28;20889;-48
2022/11/05 10:21:36;;;;;;;6.50;4.93;;;5.90;99.90;;;;;;5093718;28;20526;-47
2022/11/05 10:24:10;;;;;;;6.20;3.53;;;5.60;99.90;;;;;;5092456;28;20549;-49
2022/11/05 10:26:37;;;;;;;3.73;3.20;;;5.30;99.90;;;;;;5093323;28;20759;-48
2022/11/05 10:29:06;;;;;;;4.60;4.10;;;5.40;99.90;;;;;;5093377;28;20486;-46
2022/11/05 10:31:36;;;;;;;4.67;4.17;;;5.70;99.90;;;;;;5078036;28;20520;-45
2022/11/05 10:34:06;;;;;;;4.53;4.13;;;5.90;99.90;;;;;;5081888;28;20458;-46
2022/11/05 10:36:36;;;;;;;3.97;3.67;;;6.00;99.90;;;;;;5093700;28;20936;-46
2022/11/05 10:39:11;;;;;;;3.40;2.90;;;6.10;99.90;;;;;;5093444;28;20503;-46
2022/11/05 10:41:49;;;;;;;5.10;3.23;;;6.10;99.90;;;;;;5093076;28;20526;-47
2022/11/05 10:44:29;;;;;;;3.47;3.13;;;6.20;99.90;;;;;;5093103;28;20571;-45
2022/11/05 10:47:09;;;;;;;4.60;3.80;;;6.30;99.90;;;;;;5093534;28;20450;-46
2022/11/05 10:49:48;;;;;;;314.37;66.03;;;6.30;99.90;;;;;;5092191;28;20571;-47
2022/11/05 10:52:24;;;;;;;17.43;7.23;;;6.90;99.90;;;;;;5092721;28;20786;-45
2022/11/05 10:54:53;;;;;;;135.13;42.97;;;7.00;99.90;;;;;;5092590;28;20543;-45
2022/11/05 10:57:35;;;;;;;37.63;10.57;;;6.90;99.90;;;;;;5092564;28;20970;-45
2022/11/05 11:00:25;;;;;;;5.00;3.87;;;7.70;99.90;;;;;;5093010;28;20541;-46
2022/11/05 11:02:54;;;;;;;3.20;2.90;;;7.50;99.90;;;;;;5092895;28;20759;-44
2022/11/05 11:05:24;;;;;;;3.00;2.60;;;7.30;99.90;;;;;;5092444;28;20496;-46
2022/11/05 11:07:58;;;;;;;2.90;2.43;;;7.00;99.90;;;;;;5092334;28;20475;-47
2022/11/05 11:10:26;;;;;;;2.87;2.37;;;6.80;99.90;;;;;;5093128;28;20472;-46
2022/11/05 11:12:53;;;;;;;2.30;2.10;;;6.80;99.90;;;;;;5084695;28;20868;-46
2022/11/05 11:15:28;;;;;;;2.10;1.90;;;6.80;99.90;;;;;;5091539;28;20538;-45
2022/11/05 11:17:55;;;;;;;3.00;2.53;;;6.80;99.90;;;;;;5092516;28;20873;-45
2022/11/05 11:20:25;;;;;;;2.90;2.60;;;6.70;99.90;;;;;;5092254;28;20519;-46
2022/11/05 11:23:05;;;;;;;3.40;2.70;;;6.60;99.90;;;;;;5092213;28;20531;-43
2022/11/05 11:25:40;;;;;;;5.37;3.47;;;6.70;99.90;;;;;;5092169;28;20539;-46
2022/11/05 11:28:14;;;;;;;4.40;4.00;;;6.80;99.90;;;;;;5092291;28;20530;-46
2022/11/05 11:30:49;;;;;;;4.93;3.97;;;6.80;99.90;;;;;;5091970;28;20531;-46
2022/11/05 11:33:20;;;;;;;5.10;3.57;;;6.80;99.90;;;;;;5091696;28;20439;-47
2022/11/05 11:35:48;;;;;;;4.47;3.83;;;6.80;99.90;;;;;;5092225;28;20826;-46
2022/11/05 11:38:16;;;;;;;3.40;3.10;;;6.70;99.90;;;;;;5092870;28;20471;-46
2022/11/05 11:40:43;;;;;;;4.37;3.23;;;6.80;99.90;;;;;;5092168;28;20439;-47
2022/11/05 11:43:21;;;;;;;4.67;3.97;;;6.80;99.90;;;;;;5091527;28;20474;-46
2022/11/05 11:45:51;;;;;;;3.30;3.00;;;6.80;99.90;;;;;;5092354;28;20807;-46
2022/11/05 11:48:22;;;;;;;3.80;3.37;;;6.80;99.90;;;;;;5091713;28;20526;-47
2022/11/05 11:50:49;;;;;;;12.00;7.50;;;6.80;99.90;;;;;;5091954;28;20500;-49
2022/11/05 11:53:28;;;;;;;18.60;11.23;;;6.70;99.90;;;;;;5091676;28;21012;-46
2022/11/05 11:56:15;;;;;;;10.53;6.80;;;6.70;99.90;;;;;;5091140;28;20517;-47
2022/11/05 11:58:45;;;;;;;6.43;4.30;;;6.80;99.90;;;;;;5091993;28;20431;-47
2022/11/05 12:01:44;;;;;;;6.13;4.30;;;6.80;99.90;;;;;;5091626;28;20878;-48
2022/11/05 12:04:39;;;;;;;5.50;4.23;;;6.90;99.90;;;;;;5065364;28;20539;-46
2022/11/05 12:07:20;;;;;;;4.83;3.40;;;6.90;99.90;;;;;;5091257;28;20485;-46
2022/11/05 12:10:03;;;;;;;3.63;3.17;;;6.80;99.90;;;;;;5091032;28;20903;-46
2022/11/05 12:12:38;;;;;;;3.10;2.50;;;6.90;99.90;;;;;;5091429;28;20487;-46
2022/11/05 12:15:25;;;;;;;3.23;2.50;;;6.80;99.90;;;;;;5092365;28;20558;-46
2022/11/05 12:17:59;;;;;;;4.70;2.17;;;6.90;99.90;;;;;;5091426;28;20442;-47
2022/11/05 12:21:01;;;;;;;2.00;1.60;;;7.00;99.90;;;;;;5090805;28;20453;-47
2022/11/05 12:24:00;;;;;;;3.13;1.77;;;6.90;99.90;;;;;;5091162;28;20445;-46
2022/11/05 12:26:40;;;;;;;2.10;1.90;;;6.90;99.90;;;;;;5075676;28;20891;-48
2022/11/05 12:29:44;;;;;;;2.50;1.70;;;7.00;99.90;;;;;;5091294;28;20507;-46
2022/11/05 12:32:31;;;;;;;3.07;2.50;;;7.00;99.90;;;;;;5078538;28;20889;-46
2022/11/05 12:35:09;;;;;;;2.63;2.20;;;7.00;99.90;;;;;;5090912;28;20577;-48
2022/11/05 12:37:45;;;;;;;3.40;2.60;;;7.10;99.90;;;;;;5091433;28;20431;-48
2022/11/05 12:40:33;;;;;;;5.50;3.03;;;7.10;99.90;;;;;;5090944;28;20537;-48
2022/11/05 12:43:05;;;;;;;5.77;4.40;;;7.10;99.90;;;;;;5090742;28;20522;-48
2022/11/05 12:45:43;;;;;;;3.20;2.90;;;7.10;99.90;;;;;;5090683;28;21051;-46
2022/11/05 12:48:28;;;;;;;3.10;1.97;;;7.00;99.90;;;;;;5084349;28;20527;-46
2022/11/05 12:51:01;;;;;;;2.83;2.53;;;7.20;99.90;;;;;;5087149;28;20883;-46
2022/11/05 12:53:53;;;;;;;2.30;2.00;;;7.30;99.90;;;;;;5094582;28;20439;-46
2022/11/05 12:56:26;;;;;;;2.20;1.70;;;7.20;99.90;;;;;;5094501;28;20518;-47
2022/11/05 12:59:01;;;;;;;2.63;2.00;;;7.30;99.90;;;;;;5094971;28;20958;-47
2022/11/05 13:01:34;;;;;;;2.83;1.90;;;7.20;99.90;;;;;;5093973;28;20435;-48
2022/11/05 13:04:07;;;;;;;3.27;2.20;;;7.20;99.90;;;;;;5093297;28;20951;-46
2022/11/05 13:06:39;;;;;;;2.53;2.33;;;7.10;99.90;;;;;;5093005;28;20528;-48
2022/11/05 13:09:13;;;;;;;1.63;1.50;;;7.20;99.90;;;;;;5093694;28;20482;-47
2022/11/05 13:11:46;;;;;;;2.83;2.30;;;7.10;99.90;;;;;;5094030;28;20538;-46
2022/11/05 13:14:16;;;;;;;3.53;2.70;;;7.20;99.90;;;;;;5093906;28;20558;-46
2022/11/05 13:16:47;;;;;;;14.67;6.27;;;7.10;99.90;;;;;;5094587;28;20522;-46
2022/11/05 13:19:21;;;;;;;35.73;11.53;;;7.70;99.90;;;;;;5094562;28;20518;-46
2022/11/05 13:21:52;;;;;;;9.30;4.40;;;7.90;99.90;;;;;;5094518;28;20522;-46
2022/11/05 13:24:24;;;;;;;9.00;3.90;;;8.60;99.90;;;;;;5094517;28;20888;-46
2022/11/05 13:26:54;;;;;;;4.43;2.70;;;8.50;99.90;;;;;;5094911;28;20531;-46
2022/11/05 13:29:27;;;;;;;5.83;2.73;;;7.90;99.90;;;;;;5094188;28;20554;-46
2022/11/05 13:31:58;;;;;;;6.47;4.50;;;7.30;99.90;;;;;;5094422;28;20474;-46
2022/11/05 13:34:25;;;;;;;61.50;14.93;;;7.30;99.90;;;;;;5094738;28;20466;-46
2022/11/05 13:39:47;;;;;;;3.60;3.20;;;7.20;99.90;;;;;;5094125;28;20574;-47
2022/11/05 13:42:48;;;;;;;8.30;3.80;;;7.10;99.90;;;;;;5094417;28;20479;-46
2022/11/05 13:45:51;;;;;;;6.90;4.40;;;7.30;99.90;;;;;;5094624;28;20512;-46
2022/11/05 13:48:50;;;;;;;606.47;217.70;;;7.30;99.90;;;;;;5093901;28;20510;-46
2022/11/05 13:51:45;;;;;;;107.93;40.40;;;8.70;99.90;;;;;;5073570;28;20444;-47
2022/11/05 13:54:45;;;;;;;15.13;9.73;;;8.90;99.90;;;;;;5093921;28;20474;-46
2022/11/05 13:57:35;;;;;;;5.43;3.40;;;8.50;99.90;;;;;;5092780;28;20446;-46
2022/11/05 14:00:10;;;;;;;5.07;4.30;;;7.90;99.90;;;;;;5094298;28;20519;-46
2022/11/05 14:02:40;;;;;;;4.10;3.80;;;7.80;99.90;;;;;;5093830;28;20442;-46
2022/11/05 14:05:19;;;;;;;5.50;4.20;;;7.70;99.90;;;;;;5093669;28;20919;-46
2022/11/05 14:07:48;;;;;;;3.63;3.33;;;7.70;99.90;;;;;;5093719;28;20438;-46